Mount Lucas, Texas
Current Conditions -  °F | °C
As of 4:20 AM on Tuesday 27 Jan 2015 (Local Time) from KBEA Reporting Station
Clear Clear  
Wind Chill: 51°   Ceiling: Unl
Heat Index: 51°   Visibility: 10mi
Dew Point: 40°   Wind: 5mph
Humidity: 67%   Direction: 250°WSW
Pressure: 30.16"   Gusts: NA
Location:  28.2266°N, 97.9616°W
Report Text: KBEA 271020Z AUTO 25004KT 10SM CLR 11/05 A3016 RMK AO2 T01050046
Loading
Personal Weather Stations






























Interactive Weather Map New forecast layout! Learn more

10-Day Weather Forecast

Advertisements
Track Severe Weather on mobile